createdAt,value
2022-12-18T00:01:26.383Z,90.70
2022-12-18T00:03:57.119Z,90.50
2022-12-18T00:06:25.895Z,90.50
2022-12-18T00:08:53.963Z,90.70
2022-12-18T00:11:24.979Z,90.80
2022-12-18T00:13:53.290Z,90.90
2022-12-18T00:16:23.789Z,90.80
2022-12-18T00:18:52.958Z,90.20
2022-12-18T00:21:22.570Z,89.80
2022-12-18T00:23:51.798Z,89.90
2022-12-18T00:26:25.699Z,89.60
2022-12-18T00:29:00.823Z,90.00
2022-12-18T00:31:31.135Z,89.90
2022-12-18T00:33:59.605Z,89.50
2022-12-18T00:36:30.442Z,89.30
2022-12-18T00:39:01.721Z,89.00
2022-12-18T00:41:44.213Z,89.20
2022-12-18T00:44:14.127Z,89.60
2022-12-18T00:46:42.358Z,89.80
2022-12-18T00:49:10.203Z,90.00
2022-12-18T00:51:39.190Z,90.00
2022-12-18T00:54:06.925Z,89.90
2022-12-18T00:56:34.603Z,90.10
2022-12-18T00:59:02.965Z,90.10
2022-12-18T01:01:30.784Z,90.40
2022-12-18T01:03:59.541Z,90.40
2022-12-18T01:06:27.299Z,90.10
2022-12-18T01:08:56.869Z,90.30
2022-12-18T01:11:24.922Z,90.30
2022-12-18T01:13:54.086Z,90.10
2022-12-18T01:16:24.377Z,90.00
2022-12-18T01:18:54.845Z,90.30
2022-12-18T01:21:23.374Z,90.30
2022-12-18T01:23:54.129Z,90.30
2022-12-18T01:26:23.553Z,90.30
2022-12-18T01:28:52.090Z,89.90
2022-12-18T01:31:23.139Z,89.50
2022-12-18T01:33:52.032Z,89.30
2022-12-18T01:36:22.974Z,89.60
2022-12-18T01:38:52.109Z,90.10
2022-12-18T01:41:22.130Z,90.20
2022-12-18T01:43:54.592Z,90.20
2022-12-18T01:46:26.189Z,89.90
2022-12-18T01:49:00.930Z,89.90
2022-12-18T01:51:30.294Z,89.70
2022-12-18T01:54:00.700Z,89.90
2022-12-18T01:56:28.584Z,89.90
2022-12-18T01:59:02.842Z,89.80
2022-12-18T02:01:32.437Z,89.60
2022-12-18T02:04:21.925Z,89.70
2022-12-18T02:06:57.087Z,89.50
2022-12-18T02:09:32.570Z,89.60
2022-12-18T02:12:08.101Z,89.50
2022-12-18T02:14:44.008Z,89.40
2022-12-18T02:17:15.858Z,89.30
2022-12-18T02:19:56.977Z,89.20
2022-12-18T02:22:32.093Z,89.20
2022-12-18T02:25:14.146Z,89.30
2022-12-18T02:27:46.315Z,89.20
2022-12-18T02:30:15.201Z,89.70
2022-12-18T02:32:45.330Z,90.00
2022-12-18T02:35:18.555Z,89.90
2022-12-18T02:37:49.337Z,89.70
2022-12-18T02:40:19.978Z,89.50
2022-12-18T02:42:49.141Z,89.80
2022-12-18T02:45:20.038Z,90.00
2022-12-18T02:47:50.986Z,90.10
2022-12-18T02:50:24.461Z,90.10
2022-12-18T02:53:05.875Z,90.10
2022-12-18T02:55:47.501Z,90.00
2022-12-18T02:58:22.371Z,90.00
2022-12-18T03:00:59.841Z,89.90
2022-12-18T03:03:36.482Z,89.80
2022-12-18T03:06:10.549Z,89.90
2022-12-18T03:08:41.317Z,89.80
2022-12-18T03:11:13.219Z,89.70
2022-12-18T03:13:47.745Z,89.50
2022-12-18T03:16:19.748Z,89.30
2022-12-18T03:18:50.124Z,89.40
2022-12-18T03:21:21.466Z,89.70
2022-12-18T03:23:52.595Z,89.80
2022-12-18T03:26:26.509Z,89.90
2022-12-18T03:29:05.234Z,89.90
2022-12-18T03:31:34.870Z,89.90
2022-12-18T03:34:06.110Z,90.30
2022-12-18T03:36:41.929Z,90.30
2022-12-18T03:39:10.205Z,90.30
2022-12-18T03:41:46.472Z,90.10
2022-12-18T03:44:31.191Z,90.10
2022-12-18T03:47:08.084Z,90.20
2022-12-18T03:49:41.070Z,90.30
2022-12-18T03:52:12.878Z,90.30
2022-12-18T03:54:44.476Z,90.10
2022-12-18T03:57:19.350Z,90.30
2022-12-18T03:59:53.230Z,90.70
2022-12-18T04:02:26.534Z,90.80
2022-12-18T04:05:00.082Z,91.00
2022-12-18T04:07:29.240Z,90.90
2022-12-18T04:10:02.705Z,90.80
2022-12-18T04:12:32.132Z,91.20
2022-12-18T04:15:01.370Z,91.40
2022-12-18T04:17:29.026Z,91.30
2022-12-18T04:19:56.799Z,91.20
2022-12-18T04:22:26.339Z,90.90
2022-12-18T04:24:59.810Z,90.60
2022-12-18T04:27:34.525Z,90.50
2022-12-18T04:30:05.455Z,90.30
2022-12-18T04:32:35.411Z,89.90
2022-12-18T04:35:04.982Z,89.80
2022-12-18T04:37:33.536Z,89.80
2022-12-18T04:40:01.631Z,89.80
2022-12-18T04:42:38.058Z,89.70
2022-12-18T04:45:08.126Z,89.60
2022-12-18T04:47:35.934Z,89.50
2022-12-18T04:50:04.903Z,89.40
2022-12-18T04:52:33.903Z,89.30
2022-12-18T04:55:01.584Z,89.10
2022-12-18T04:57:29.246Z,89.00
2022-12-18T04:59:56.917Z,89.10
2022-12-18T05:02:26.054Z,89.60
2022-12-18T05:04:53.889Z,90.20
2022-12-18T05:07:21.653Z,90.40
2022-12-18T05:09:49.432Z,90.80
2022-12-18T05:12:17.207Z,90.80
2022-12-18T05:14:44.911Z,90.90
2022-12-18T05:17:13.156Z,91.10
2022-12-18T05:19:42.174Z,91.00
2022-12-18T05:22:09.934Z,90.80
2022-12-18T05:24:37.731Z,90.60
2022-12-18T05:27:05.410Z,90.30
2022-12-18T05:29:33.110Z,90.60
2022-12-18T05:32:00.794Z,90.80
2022-12-18T05:34:29.115Z,90.80
2022-12-18T05:36:58.158Z,90.70
2022-12-18T05:39:25.839Z,90.70
2022-12-18T05:41:53.522Z,90.80
2022-12-18T05:44:21.263Z,90.80
2022-12-18T05:46:49.000Z,90.70
2022-12-18T05:49:16.783Z,90.50
2022-12-18T05:51:44.432Z,90.10
2022-12-18T05:54:13.437Z,89.90
2022-12-18T05:56:46.998Z,89.70
2022-12-18T05:59:16.354Z,90.10
2022-12-18T06:01:44.227Z,90.20
2022-12-18T06:04:13.215Z,90.00
2022-12-18T06:06:41.116Z,89.70
2022-12-18T06:09:10.434Z,89.60
2022-12-18T06:11:39.972Z,89.50
2022-12-18T06:14:08.602Z,89.30
2022-12-18T06:16:36.414Z,89.40
2022-12-18T06:19:06.242Z,89.30
2022-12-18T06:21:34.821Z,89.00
2022-12-18T06:24:02.951Z,89.20
2022-12-18T06:26:30.660Z,89.50
2022-12-18T06:28:59.701Z,89.50
2022-12-18T06:31:27.693Z,89.70
2022-12-18T06:33:55.586Z,89.90
2022-12-18T06:36:23.523Z,90.00
2022-12-18T06:38:51.433Z,89.90
2022-12-18T06:41:21.782Z,89.90
2022-12-18T06:43:49.488Z,89.90
2022-12-18T06:46:18.655Z,89.60
2022-12-18T06:48:50.370Z,89.50
2022-12-18T06:51:19.763Z,89.50
2022-12-18T06:53:47.577Z,89.40
2022-12-18T06:56:15.367Z,89.50
2022-12-18T06:58:43.100Z,89.70
2022-12-18T07:01:12.638Z,89.90
2022-12-18T07:03:43.574Z,89.70
2022-12-18T07:06:17.218Z,89.60
2022-12-18T07:08:45.215Z,89.30
2022-12-18T07:11:13.173Z,89.60
2022-12-18T07:13:41.294Z,89.70
2022-12-18T07:16:18.363Z,89.80
2022-12-18T07:18:51.554Z,89.50
2022-12-18T07:21:21.254Z,89.40
2022-12-18T07:23:49.565Z,89.60
2022-12-18T07:26:19.121Z,89.70
2022-12-18T07:28:46.872Z,89.40
2022-12-18T07:31:17.329Z,89.30
2022-12-18T07:33:45.792Z,89.30
2022-12-18T07:36:15.342Z,89.10
2022-12-18T07:38:43.170Z,89.30
2022-12-18T07:41:12.819Z,89.30
2022-12-18T07:43:42.036Z,89.30
2022-12-18T07:46:11.806Z,89.30
2022-12-18T07:48:41.503Z,89.30
2022-12-18T07:51:09.734Z,89.20
2022-12-18T07:53:39.184Z,89.30
2022-12-18T07:58:57.980Z,88.70
2022-12-18T08:01:26.282Z,88.40
2022-12-18T08:03:54.390Z,88.80
2022-12-18T08:06:23.808Z,88.70
2022-12-18T08:08:54.342Z,88.50
2022-12-18T08:11:22.125Z,88.70
2022-12-18T08:13:49.875Z,88.70
2022-12-18T08:16:18.467Z,88.90
2022-12-18T08:18:49.555Z,89.00
2022-12-18T08:21:20.605Z,90.00
2022-12-18T08:23:50.164Z,91.00
2022-12-18T08:26:21.080Z,91.10
2022-12-18T08:28:49.942Z,90.90
2022-12-18T08:31:18.930Z,90.50
2022-12-18T08:33:47.376Z,90.00
2022-12-18T08:36:15.085Z,89.80
2022-12-18T08:38:42.950Z,89.90
2022-12-18T08:41:12.412Z,90.00
2022-12-18T08:43:56.146Z,89.80
2022-12-18T08:46:26.160Z,89.80
2022-12-18T08:48:54.950Z,90.30
2022-12-18T08:51:22.951Z,90.20
2022-12-18T08:53:50.692Z,89.30
2022-12-18T08:56:18.591Z,89.10
2022-12-18T08:58:47.728Z,88.80
2022-12-18T09:01:15.761Z,88.30
2022-12-18T09:03:44.146Z,87.80
2022-12-18T09:06:16.518Z,87.90
2022-12-18T09:08:44.942Z,87.70
2022-12-18T09:11:16.348Z,87.30
2022-12-18T09:13:44.094Z,86.80
2022-12-18T09:16:13.110Z,86.50
2022-12-18T09:18:41.367Z,86.10
2022-12-18T09:21:10.954Z,85.60
2022-12-18T09:23:38.887Z,85.70
2022-12-18T09:26:06.780Z,86.00
2022-12-18T09:28:34.498Z,85.70
2022-12-18T09:31:06.531Z,85.40
2022-12-18T09:33:35.916Z,84.90
2022-12-18T09:36:07.539Z,84.40
2022-12-18T09:38:37.037Z,84.40
2022-12-18T09:41:08.270Z,84.60
2022-12-18T09:43:41.440Z,84.90
2022-12-18T09:46:13.528Z,85.00
2022-12-18T09:48:47.133Z,84.50
2022-12-18T09:51:19.350Z,84.50
2022-12-18T09:54:01.969Z,84.80
2022-12-18T09:56:33.316Z,84.80
2022-12-18T09:59:03.046Z,84.40
2022-12-18T10:01:41.561Z,84.40
2022-12-18T10:04:13.227Z,84.50
2022-12-18T10:06:46.821Z,84.10
2022-12-18T10:09:23.198Z,83.90
2022-12-18T10:12:02.897Z,84.20
2022-12-18T10:14:36.110Z,84.10
2022-12-18T10:17:15.542Z,84.40
2022-12-18T10:19:51.632Z,85.00
2022-12-18T10:22:31.528Z,85.00
2022-12-18T10:25:07.571Z,84.90
2022-12-18T10:27:35.676Z,84.70
2022-12-18T10:30:14.196Z,86.00
2022-12-18T10:32:43.859Z,87.00
2022-12-18T10:35:20.295Z,86.90
2022-12-18T10:38:04.983Z,86.80
2022-12-18T10:40:33.330Z,86.80
2022-12-18T10:43:06.720Z,86.10
2022-12-18T10:45:35.955Z,85.10
2022-12-18T10:48:04.226Z,85.90
2022-12-18T10:51:09.297Z,86.20
2022-12-18T10:53:25.678Z,86.10
2022-12-18T10:55:55.641Z,86.80
2022-12-18T10:58:27.445Z,87.10
2022-12-18T11:01:06.564Z,86.30
2022-12-18T11:03:37.707Z,86.00
2022-12-18T11:06:10.869Z,85.90
2022-12-18T11:08:40.126Z,85.80
2022-12-18T11:11:17.965Z,84.80
2022-12-18T11:13:59.526Z,84.40
2022-12-18T11:16:27.990Z,83.80
2022-12-18T11:18:56.366Z,83.70
2022-12-18T11:21:25.444Z,83.90
2022-12-18T11:23:54.963Z,83.90
2022-12-18T11:26:23.074Z,83.50
2022-12-18T11:28:54.246Z,82.40
2022-12-18T11:31:26.625Z,83.20
2022-12-18T11:36:50.514Z,84.10
2022-12-18T11:39:22.511Z,83.40
2022-12-18T11:42:09.321Z,83.60
2022-12-18T11:44:42.975Z,83.90
2022-12-18T11:47:21.352Z,84.10
2022-12-18T11:49:51.602Z,84.20
2022-12-18T11:52:24.396Z,84.00
2022-12-18T11:54:54.474Z,83.90
2022-12-18T11:57:36.002Z,84.20
2022-12-18T12:00:12.965Z,84.60
2022-12-18T12:03:03.384Z,84.70
2022-12-18T12:05:44.857Z,84.60
2022-12-18T12:08:24.526Z,83.90
2022-12-18T12:11:03.157Z,83.80
2022-12-18T12:13:43.173Z,83.70
2022-12-18T12:16:19.382Z,83.10
2022-12-18T12:18:58.479Z,82.30
2022-12-18T12:21:30.451Z,81.90
2022-12-18T12:24:12.560Z,81.60
2022-12-18T12:26:50.300Z,81.50
2022-12-18T12:29:34.405Z,81.20
2022-12-18T12:32:19.154Z,83.30
2022-12-18T12:34:59.633Z,83.50
2022-12-18T12:37:38.540Z,82.90
2022-12-18T12:40:40.983Z,83.30
2022-12-18T12:43:14.058Z,83.20
2022-12-18T12:45:47.916Z,83.30
2022-12-18T12:48:33.612Z,84.20
2022-12-18T12:51:05.285Z,84.40
2022-12-18T12:53:38.805Z,84.80
2022-12-18T12:56:13.189Z,85.60
2022-12-18T12:58:48.591Z,86.20
2022-12-18T13:01:25.018Z,86.60
2022-12-18T13:04:02.757Z,87.10
2022-12-18T13:06:44.386Z,88.20
2022-12-18T13:09:12.880Z,88.30
2022-12-18T13:11:59.991Z,88.30
2022-12-18T13:14:45.550Z,89.50
2022-12-18T13:17:18.164Z,90.20
2022-12-18T13:19:46.358Z,89.90
2022-12-18T13:22:24.642Z,89.60
2022-12-18T13:25:03.870Z,88.80
2022-12-18T13:27:56.897Z,88.40
2022-12-18T13:30:48.450Z,88.40
2022-12-18T13:33:56.402Z,88.40
2022-12-18T13:36:31.012Z,88.20
2022-12-18T13:39:28.659Z,88.30
2022-12-18T13:42:44.291Z,88.30
2022-12-18T13:45:41.966Z,88.20
2022-12-18T13:48:21.117Z,87.90
2022-12-18T13:50:53.832Z,88.20
2022-12-18T13:53:25.558Z,88.10
2022-12-18T13:55:53.693Z,88.00
2022-12-18T13:58:21.625Z,87.80
2022-12-18T14:00:50.454Z,87.30
2022-12-18T14:03:24.487Z,87.00
2022-12-18T14:05:57.126Z,86.80
2022-12-18T14:08:27.972Z,86.80
2022-12-18T14:10:55.805Z,87.00
2022-12-18T14:13:32.398Z,87.20
2022-12-18T14:16:04.057Z,87.30
2022-12-18T14:18:40.727Z,87.70
2022-12-18T14:21:17.124Z,88.00
2022-12-18T14:23:46.114Z,88.20
2022-12-18T14:26:30.693Z,88.20
2022-12-18T14:29:01.889Z,88.30
2022-12-18T14:31:32.476Z,88.40
2022-12-18T14:34:01.556Z,88.30
2022-12-18T14:36:31.093Z,88.30
2022-12-18T14:39:00.452Z,88.40
2022-12-18T14:41:29.644Z,88.40
2022-12-18T14:44:06.695Z,88.40
2022-12-18T14:46:37.513Z,88.50
2022-12-18T14:49:20.436Z,88.60
2022-12-18T14:51:50.714Z,88.70
2022-12-18T14:54:20.500Z,88.70
2022-12-18T14:56:51.154Z,88.90
2022-12-18T14:59:24.675Z,88.80
2022-12-18T15:02:00.955Z,88.80
2022-12-18T15:04:35.975Z,88.80
2022-12-18T15:07:09.714Z,88.70
2022-12-18T15:09:38.586Z,89.00
2022-12-18T15:12:06.934Z,89.10
2022-12-18T15:14:40.712Z,89.10
2022-12-18T15:17:19.509Z,89.20
2022-12-18T15:19:50.401Z,89.40
2022-12-18T15:22:22.502Z,89.50
2022-12-18T15:25:21.866Z,89.80
2022-12-18T15:27:49.735Z,89.80
2022-12-18T15:30:23.226Z,89.80
2022-12-18T15:32:52.276Z,89.80
2022-12-18T15:35:23.779Z,90.10
2022-12-18T15:37:52.527Z,90.20
2022-12-18T15:40:22.068Z,90.40
2022-12-18T15:43:04.449Z,90.50
2022-12-18T15:45:32.245Z,90.50
2022-12-18T15:48:00.366Z,90.60
2022-12-18T15:50:29.918Z,90.70
2022-12-18T15:52:58.772Z,90.90
2022-12-18T15:55:40.526Z,90.40
2022-12-18T15:58:11.451Z,90.30
2022-12-18T16:00:41.946Z,90.50
2022-12-18T16:03:11.746Z,90.60
2022-12-18T16:05:40.886Z,90.70
2022-12-18T16:08:08.621Z,90.70
2022-12-18T16:10:37.194Z,90.60
2022-12-18T16:13:04.887Z,90.70
2022-12-18T16:15:32.647Z,90.70
2022-12-18T16:18:00.358Z,90.90
2022-12-18T16:20:28.035Z,90.90
2022-12-18T16:22:57.029Z,90.70
2022-12-18T16:25:27.052Z,90.80
2022-12-18T16:27:56.182Z,90.70
2022-12-18T16:30:28.026Z,90.80
2022-12-18T16:32:57.194Z,90.60
2022-12-18T16:35:27.787Z,90.40
2022-12-18T16:37:57.059Z,90.30
2022-12-18T16:40:25.512Z,90.20
2022-12-18T16:42:53.275Z,90.10
2022-12-18T16:45:21.089Z,90.00
2022-12-18T16:47:48.810Z,90.00
2022-12-18T16:50:16.858Z,90.00
2022-12-18T16:52:45.638Z,90.00
2022-12-18T16:55:15.619Z,89.90
2022-12-18T16:57:43.355Z,89.90
2022-12-18T17:00:12.211Z,89.90
2022-12-18T17:02:40.285Z,89.90
2022-12-18T17:05:08.597Z,89.60
2022-12-18T17:07:36.342Z,89.60
2022-12-18T17:10:09.242Z,89.70
2022-12-18T17:12:39.111Z,89.90
2022-12-18T17:15:07.789Z,89.90
2022-12-18T17:17:36.569Z,89.80
2022-12-18T17:20:05.881Z,90.20
2022-12-18T17:22:33.566Z,90.40
2022-12-18T17:25:01.395Z,90.50
2022-12-18T17:27:29.190Z,90.40
2022-12-18T17:29:58.179Z,90.40
2022-12-18T17:32:25.841Z,90.20
2022-12-18T17:34:53.554Z,90.00
2022-12-18T17:37:21.272Z,90.00
2022-12-18T17:39:49.006Z,90.20
2022-12-18T17:42:16.686Z,90.40
2022-12-18T17:44:44.667Z,90.30
2022-12-18T17:47:13.919Z,90.30
2022-12-18T17:49:42.018Z,90.30
2022-12-18T17:52:10.195Z,90.30
2022-12-18T17:54:41.805Z,90.30
2022-12-18T17:57:10.914Z,90.00
2022-12-18T17:59:38.692Z,89.80
2022-12-18T18:02:06.595Z,89.60
2022-12-18T18:04:35.786Z,89.60
2022-12-18T18:07:03.546Z,89.50
2022-12-18T18:09:32.294Z,89.50
2022-12-18T18:12:14.044Z,89.80
2022-12-18T18:14:41.854Z,90.00
2022-12-18T18:17:09.563Z,90.00
2022-12-18T18:19:38.590Z,90.00
2022-12-18T18:22:07.482Z,90.00
2022-12-18T18:24:35.712Z,90.00
2022-12-18T18:27:03.433Z,89.90
2022-12-18T18:29:31.510Z,89.80
2022-12-18T18:31:59.407Z,89.80
2022-12-18T18:34:28.793Z,90.00
2022-12-18T18:37:00.223Z,90.30
2022-12-18T18:39:28.592Z,90.30
2022-12-18T18:41:57.162Z,90.50
2022-12-18T18:44:26.358Z,90.50
2022-12-18T18:46:55.850Z,90.80
2022-12-18T18:49:26.937Z,91.20
2022-12-18T18:51:55.141Z,91.60
2022-12-18T18:54:24.144Z,92.20
2022-12-18T18:59:39.729Z,93.50
2022-12-18T19:02:08.236Z,93.60
2022-12-18T19:04:40.908Z,93.60
2022-12-18T19:07:14.529Z,93.80
2022-12-18T19:09:51.878Z,93.60
2022-12-18T19:12:33.623Z,93.10
2022-12-18T19:15:01.487Z,93.10
2022-12-18T19:17:31.599Z,93.00
2022-12-18T19:19:59.666Z,93.10
2022-12-18T19:22:27.427Z,93.00
2022-12-18T19:24:56.475Z,92.90
2022-12-18T19:27:24.236Z,92.40
2022-12-18T19:29:51.930Z,92.20
2022-12-18T19:32:19.983Z,91.90
2022-12-18T19:34:47.934Z,91.90
2022-12-18T19:37:16.174Z,91.80
2022-12-18T19:39:43.986Z,91.70
2022-12-18T19:42:12.982Z,91.60
2022-12-18T19:44:41.227Z,91.40
2022-12-18T19:47:08.918Z,91.30
2022-12-18T19:49:38.527Z,91.10
2022-12-18T19:52:06.387Z,90.80
2022-12-18T19:54:34.071Z,90.70
2022-12-18T19:57:02.447Z,90.50
2022-12-18T19:59:31.458Z,90.30
2022-12-18T20:01:59.425Z,90.60
2022-12-18T20:04:27.328Z,90.80
2022-12-18T20:06:55.487Z,90.80
2022-12-18T20:09:23.733Z,90.90
2022-12-18T20:11:51.676Z,91.10
2022-12-18T20:14:21.167Z,91.10
2022-12-18T20:16:53.328Z,91.00
2022-12-18T20:19:22.765Z,90.80
2022-12-18T20:21:50.815Z,90.70
2022-12-18T20:24:18.622Z,90.70
2022-12-18T20:26:46.411Z,90.80
2022-12-18T20:29:14.260Z,90.80
2022-12-18T20:31:42.472Z,90.70
2022-12-18T20:34:12.944Z,90.90
2022-12-18T20:36:41.769Z,91.30
2022-12-18T20:39:10.976Z,91.60
2022-12-18T20:41:40.751Z,91.90
2022-12-18T20:44:21.425Z,91.90
2022-12-18T20:46:53.290Z,91.80
2022-12-18T20:49:23.034Z,91.60
2022-12-18T20:51:52.465Z,91.50
2022-12-18T20:54:20.657Z,91.50
2022-12-18T20:56:48.351Z,91.50
2022-12-18T20:59:17.615Z,91.40
2022-12-18T21:01:48.614Z,91.40
2022-12-18T21:04:18.266Z,91.40
2022-12-18T21:06:52.941Z,91.30
2022-12-18T21:09:23.716Z,91.30
2022-12-18T21:12:05.659Z,91.30
2022-12-18T21:14:33.618Z,91.40
2022-12-18T21:17:02.210Z,91.30
2022-12-18T21:19:30.651Z,91.50
2022-12-18T21:22:00.165Z,91.50
2022-12-18T21:24:29.709Z,91.50
2022-12-18T21:27:01.836Z,91.40
2022-12-18T21:29:29.747Z,91.60
2022-12-18T21:31:57.703Z,91.60
2022-12-18T21:34:27.195Z,91.40
2022-12-18T21:36:55.437Z,91.40
2022-12-18T21:39:25.161Z,91.40
2022-12-18T21:42:07.430Z,91.50
2022-12-18T21:44:36.162Z,91.80
2022-12-18T21:47:22.070Z,92.00
2022-12-18T21:49:50.682Z,92.00
2022-12-18T21:52:18.412Z,92.10
2022-12-18T21:54:47.442Z,92.10
2022-12-18T21:57:15.117Z,92.10
2022-12-18T21:59:44.113Z,92.00
2022-12-18T22:02:14.325Z,92.00
2022-12-18T22:04:42.600Z,92.00
2022-12-18T22:07:11.558Z,92.00
2022-12-18T22:09:39.416Z,92.10
2022-12-18T22:12:09.814Z,92.20
2022-12-18T22:14:37.688Z,92.00
2022-12-18T22:17:05.414Z,91.80
2022-12-18T22:19:36.756Z,91.60
2022-12-18T22:22:10.332Z,91.40
2022-12-18T22:24:37.997Z,91.50
2022-12-18T22:27:05.951Z,91.50
2022-12-18T22:29:48.914Z,91.80
2022-12-18T22:32:20.656Z,92.10
2022-12-18T22:35:05.328Z,92.40
2022-12-18T22:37:35.032Z,92.40
2022-12-18T22:40:03.341Z,92.30
2022-12-18T22:42:31.775Z,92.20
2022-12-18T22:45:01.040Z,92.20
2022-12-18T22:47:30.462Z,92.20
2022-12-18T22:49:58.886Z,91.80
2022-12-18T22:52:26.617Z,92.00
2022-12-18T22:54:54.801Z,92.00
2022-12-18T22:57:22.654Z,92.20
2022-12-18T22:59:50.557Z,92.20
2022-12-18T23:02:19.995Z,92.30
2022-12-18T23:04:48.290Z,92.40
2022-12-18T23:07:16.008Z,92.40
2022-12-18T23:09:44.051Z,92.70
2022-12-18T23:12:16.946Z,92.80
2022-12-18T23:14:45.126Z,92.70
2022-12-18T23:17:12.839Z,92.50
2022-12-18T23:19:48.494Z,92.40
2022-12-18T23:22:16.890Z,92.30
2022-12-18T23:24:44.611Z,92.30
2022-12-18T23:27:12.412Z,92.20
2022-12-18T23:29:40.326Z,92.40
2022-12-18T23:32:08.627Z,92.50
2022-12-18T23:34:36.348Z,92.40
2022-12-18T23:37:05.666Z,92.60
2022-12-18T23:39:33.292Z,92.60
2022-12-18T23:42:01.421Z,93.20
2022-12-18T23:44:29.491Z,93.20
2022-12-18T23:46:57.301Z,93.10
2022-12-18T23:49:25.126Z,93.00
2022-12-18T23:51:54.863Z,92.90
2022-12-18T23:54:32.689Z,92.50
2022-12-18T23:57:01.908Z,92.40
2022-12-18T23:59:29.621Z,92.50
